createdAt,value
2023-02-23T00:00:34.165Z,79.11
2023-02-23T00:03:09.610Z,78.87
2023-02-23T00:05:45.568Z,78.73
2023-02-23T00:08:20.451Z,79.09
2023-02-23T00:10:58.721Z,79.46
2023-02-23T00:13:37.503Z,78.74
2023-02-23T00:16:14.427Z,78.49
2023-02-23T00:18:51.545Z,79.98
2023-02-23T00:21:29.929Z,79.00
2023-02-23T00:24:08.502Z,77.88
2023-02-23T00:26:43.329Z,78.97
2023-02-23T00:29:20.814Z,80.23
2023-02-23T00:31:56.242Z,79.27
2023-02-23T00:34:31.188Z,79.37
2023-02-23T00:37:09.709Z,79.77
2023-02-23T00:39:44.850Z,80.64
2023-02-23T00:42:19.210Z,80.79
2023-02-23T00:44:53.734Z,80.46
2023-02-23T00:47:28.011Z,79.64
2023-02-23T00:50:02.756Z,79.19
2023-02-23T00:52:39.012Z,79.62
2023-02-23T00:55:15.449Z,80.44
2023-02-23T00:57:49.775Z,80.58
2023-02-23T01:00:26.608Z,80.68
2023-02-23T01:03:02.303Z,81.29
2023-02-23T01:05:37.247Z,80.04
2023-02-23T01:08:15.556Z,79.91
2023-02-23T01:10:53.272Z,79.53
2023-02-23T01:13:28.143Z,79.44
2023-02-23T01:16:07.166Z,79.68
2023-02-23T01:18:44.674Z,80.08
2023-02-23T01:21:21.583Z,80.24
2023-02-23T01:23:58.219Z,80.41
2023-02-23T01:26:35.983Z,80.53
2023-02-23T01:29:12.871Z,80.67
2023-02-23T01:31:49.157Z,81.01
2023-02-23T01:34:23.781Z,81.28
2023-02-23T01:36:58.328Z,81.16
2023-02-23T01:39:34.438Z,81.31
2023-02-23T01:42:14.118Z,82.03
2023-02-23T01:45:22.849Z,81.79
2023-02-23T01:48:01.788Z,81.81
2023-02-23T01:50:43.620Z,81.62
2023-02-23T01:53:21.893Z,81.47
2023-02-23T01:56:02.495Z,82.06
2023-02-23T01:58:37.074Z,82.51
2023-02-23T02:01:12.536Z,82.90
2023-02-23T02:03:50.982Z,83.36
2023-02-23T02:06:28.878Z,83.58
2023-02-23T02:09:07.811Z,82.97
2023-02-23T02:11:46.417Z,83.59
2023-02-23T02:14:24.654Z,84.37
2023-02-23T02:17:10.816Z,84.37
2023-02-23T02:20:33.763Z,84.46
2023-02-23T02:23:39.132Z,84.71
2023-02-23T02:26:23.000Z,85.14
2023-02-23T02:29:26.441Z,85.10
2023-02-23T02:32:33.258Z,84.96
2023-02-23T02:35:33.363Z,85.04
2023-02-23T02:38:22.167Z,85.04
2023-02-23T02:41:03.999Z,84.77
2023-02-23T02:43:47.124Z,84.59
2023-02-23T02:46:25.616Z,84.36
2023-02-23T02:49:08.910Z,84.72
2023-02-23T02:51:49.195Z,84.78
2023-02-23T02:54:31.487Z,84.52
2023-02-23T02:57:07.315Z,84.51
2023-02-23T03:00:03.337Z,84.47
2023-02-23T03:02:58.128Z,83.96
2023-02-23T03:06:03.968Z,84.46
2023-02-23T03:09:03.837Z,84.80
2023-02-23T03:12:01.787Z,84.53
2023-02-23T03:15:00.418Z,84.46
2023-02-23T03:18:01.991Z,84.37
2023-02-23T03:21:02.401Z,84.48
2023-02-23T03:24:05.666Z,85.21
2023-02-23T03:27:04.905Z,85.30
2023-02-23T03:30:04.975Z,85.14
2023-02-23T03:33:04.790Z,85.18
2023-02-23T03:36:07.452Z,85.38
2023-02-23T03:39:05.400Z,85.43
2023-02-23T03:42:03.250Z,85.53
2023-02-23T03:44:59.251Z,85.40
2023-02-23T03:47:56.103Z,85.22
2023-02-23T03:50:53.963Z,85.52
2023-02-23T03:53:52.590Z,85.64
2023-02-23T03:56:47.382Z,85.43
2023-02-23T03:59:45.801Z,86.10
2023-02-23T04:02:38.858Z,85.81
2023-02-23T04:05:36.652Z,85.77
2023-02-23T04:08:32.595Z,85.65
2023-02-23T04:11:32.746Z,85.83
2023-02-23T04:14:12.636Z,85.49
2023-02-23T04:16:48.347Z,85.26
2023-02-23T04:19:22.929Z,85.12
2023-02-23T04:21:57.469Z,85.04
2023-02-23T04:24:31.732Z,85.07
2023-02-23T04:27:06.467Z,85.12
2023-02-23T04:29:41.055Z,84.76
2023-02-23T04:32:18.744Z,84.09
2023-02-23T04:34:53.055Z,83.98
2023-02-23T04:37:27.679Z,84.01
2023-02-23T04:40:02.478Z,84.20
2023-02-23T04:42:39.269Z,84.16
2023-02-23T04:45:13.659Z,83.93
2023-02-23T04:47:49.620Z,84.13
2023-02-23T04:50:24.070Z,84.17
2023-02-23T04:52:58.567Z,84.21
2023-02-23T04:55:33.131Z,100.00
2023-02-23T04:58:08.270Z,100.00
2023-02-23T05:00:42.740Z,92.44
2023-02-23T05:03:18.663Z,88.77
2023-02-23T05:05:52.784Z,86.02
2023-02-23T05:08:27.276Z,84.70
2023-02-23T05:11:01.565Z,84.41
2023-02-23T05:13:36.213Z,84.55
2023-02-23T05:16:10.775Z,84.34
2023-02-23T05:18:46.779Z,84.42
2023-02-23T05:21:21.372Z,84.07
2023-02-23T05:23:57.314Z,84.00
2023-02-23T05:26:31.710Z,83.91
2023-02-23T05:29:06.703Z,84.53
2023-02-23T05:31:44.769Z,83.82
2023-02-23T05:34:21.029Z,83.61
2023-02-23T05:36:55.513Z,83.37
2023-02-23T05:39:30.523Z,83.71
2023-02-23T15:03:05.921Z,58.58
2023-02-23T15:05:44.534Z,57.80
2023-02-23T15:08:23.172Z,57.58
2023-02-23T15:11:03.157Z,80.24
2023-02-23T15:13:39.610Z,78.27
2023-02-23T15:16:17.431Z,62.96
2023-02-23T15:18:53.935Z,59.45
2023-02-23T15:21:28.961Z,57.62
2023-02-23T15:24:08.324Z,57.57
2023-02-23T15:26:43.886Z,58.17
2023-02-23T15:29:21.310Z,58.77
2023-02-23T15:31:58.232Z,58.77
2023-02-23T15:34:34.284Z,58.76
2023-02-23T15:37:14.873Z,58.96
2023-02-23T15:39:54.157Z,59.79
2023-02-23T15:42:37.568Z,59.93
2023-02-23T15:45:19.908Z,60.39
2023-02-23T15:47:56.547Z,60.94
2023-02-23T15:50:37.368Z,61.22
2023-02-23T15:53:25.276Z,61.47
2023-02-23T15:56:05.521Z,61.67
2023-02-23T15:58:56.079Z,62.15
2023-02-23T16:01:32.414Z,62.55
2023-02-23T16:04:10.006Z,63.00
2023-02-23T16:06:53.413Z,63.22
2023-02-23T16:09:30.214Z,63.43
2023-02-23T16:12:12.092Z,63.05
2023-02-23T16:14:50.611Z,63.42
2023-02-23T16:17:31.790Z,63.77
2023-02-23T16:20:17.162Z,65.03
2023-02-23T16:22:55.267Z,65.06
2023-02-23T16:25:31.742Z,65.54
2023-02-23T16:28:09.765Z,65.34
2023-02-23T16:30:46.368Z,65.56
2023-02-23T16:33:24.449Z,65.91
2023-02-23T16:36:16.638Z,65.67
2023-02-23T16:39:00.607Z,66.12
2023-02-23T16:41:36.363Z,66.10
2023-02-23T16:44:18.051Z,65.77
2023-02-23T16:46:59.049Z,66.11
2023-02-23T16:49:33.022Z,66.52
2023-02-23T16:52:17.215Z,66.25
2023-02-23T16:54:55.775Z,66.08
2023-02-23T16:57:35.726Z,66.68
2023-02-23T17:00:18.068Z,66.67
2023-02-23T17:02:53.450Z,66.75
2023-02-23T17:05:29.252Z,67.76
2023-02-23T17:08:05.052Z,67.88
2023-02-23T17:10:42.447Z,67.79
2023-02-23T17:13:19.313Z,67.87
2023-02-23T17:15:56.575Z,68.37
2023-02-23T17:18:33.473Z,68.47
2023-02-23T17:21:10.725Z,67.69
2023-02-23T17:23:50.990Z,67.89
2023-02-23T17:26:27.008Z,68.57
2023-02-23T17:29:01.826Z,67.98
2023-02-23T17:31:38.127Z,68.14
2023-02-23T17:34:13.277Z,68.08
2023-02-23T17:36:47.914Z,67.55
2023-02-23T17:39:22.726Z,67.35
2023-02-23T17:41:58.807Z,67.37
2023-02-23T17:44:33.501Z,95.87
2023-02-23T17:47:07.825Z,82.86
2023-02-23T17:49:42.591Z,68.44
2023-02-23T17:52:17.279Z,66.85
2023-02-23T17:54:53.601Z,67.21
2023-02-23T17:57:30.514Z,67.66
2023-02-23T18:00:08.026Z,68.44
2023-02-23T18:02:46.900Z,67.62
2023-02-23T18:05:22.269Z,67.50
2023-02-23T18:07:56.539Z,68.25
2023-02-23T18:10:31.330Z,67.89
2023-02-23T18:13:07.295Z,68.35
2023-02-23T18:15:42.282Z,68.38
2023-02-23T18:18:17.183Z,68.31
2023-02-23T18:20:53.673Z,68.66
2023-02-23T18:23:32.630Z,68.54
2023-02-23T18:26:09.223Z,69.12
2023-02-23T18:28:46.039Z,68.87
2023-02-23T18:31:23.846Z,69.07
2023-02-23T18:34:01.471Z,68.74
2023-02-23T18:36:38.332Z,68.92
2023-02-23T18:39:13.604Z,69.15
2023-02-23T18:41:49.790Z,68.58
2023-02-23T18:44:25.790Z,68.57
2023-02-23T18:47:00.709Z,68.50
2023-02-23T18:49:37.348Z,69.31
2023-02-23T18:52:12.903Z,69.05
2023-02-23T18:54:47.508Z,68.71
2023-02-23T18:57:25.508Z,68.72
2023-02-23T19:00:02.460Z,68.67
2023-02-23T19:02:38.159Z,69.05
2023-02-23T19:05:13.933Z,69.21
2023-02-23T19:07:50.449Z,69.37
2023-02-23T19:10:25.049Z,69.30
2023-02-23T19:13:00.332Z,69.35
2023-02-23T19:15:37.415Z,69.44
2023-02-23T19:18:12.019Z,69.14
2023-02-23T19:20:46.982Z,98.39
2023-02-23T19:23:21.896Z,76.70
2023-02-23T19:25:56.398Z,69.72
2023-02-23T19:28:31.859Z,69.01
2023-02-23T19:31:10.191Z,99.06
2023-02-23T19:33:45.558Z,70.74
2023-02-23T19:36:22.435Z,69.26
2023-02-23T19:39:06.284Z,68.51
2023-02-23T19:41:41.488Z,67.92
2023-02-23T19:44:18.255Z,68.13
2023-02-23T19:46:54.472Z,68.65
2023-02-23T19:49:29.396Z,68.42
2023-02-23T19:52:04.052Z,68.79
2023-02-23T19:54:38.998Z,69.10
2023-02-23T19:57:13.744Z,69.30
2023-02-23T19:59:48.787Z,70.06
2023-02-23T20:02:24.691Z,69.40
2023-02-23T20:04:59.487Z,100.00
2023-02-23T20:07:34.602Z,97.46
2023-02-23T20:10:14.009Z,87.51
2023-02-23T20:12:54.045Z,79.25
2023-02-23T20:15:29.178Z,68.23
2023-02-23T20:18:07.160Z,69.62
2023-02-23T20:20:42.282Z,68.38
2023-02-23T20:23:16.806Z,69.92
2023-02-23T20:25:52.141Z,68.86
2023-02-23T20:28:27.032Z,69.80
2023-02-23T20:31:03.615Z,70.39
2023-02-23T20:33:39.699Z,70.11
2023-02-23T20:36:14.504Z,70.63
2023-02-23T20:38:49.462Z,69.89
2023-02-23T20:41:28.175Z,69.92
2023-02-23T20:44:02.747Z,69.23
2023-02-23T20:46:40.099Z,69.11
2023-02-23T20:49:18.814Z,68.85
2023-02-23T20:51:53.772Z,68.76
2023-02-23T20:54:28.424Z,67.96
2023-02-23T20:57:07.686Z,68.06
2023-02-23T20:59:43.233Z,97.94
2023-02-23T21:02:18.052Z,99.50
2023-02-23T21:04:53.700Z,81.75
2023-02-23T21:07:28.754Z,70.66
2023-02-23T21:10:03.498Z,67.81
2023-02-23T21:12:38.552Z,67.38
2023-02-23T21:15:14.935Z,67.70
2023-02-23T21:17:50.720Z,67.74
2023-02-23T21:20:27.996Z,68.11
2023-02-23T21:23:04.386Z,68.11
2023-02-23T21:25:39.061Z,68.98
2023-02-23T21:28:13.919Z,68.88
2023-02-23T21:30:48.382Z,68.72
2023-02-23T21:33:23.055Z,68.44
2023-02-23T21:35:59.915Z,68.56
2023-02-23T21:38:34.762Z,69.03
2023-02-23T21:41:09.815Z,68.83
2023-02-23T21:43:46.158Z,69.06
2023-02-23T21:46:21.922Z,68.95
2023-02-23T21:48:56.470Z,68.85
2023-02-23T21:51:36.614Z,69.08
2023-02-23T21:54:11.394Z,68.61
2023-02-23T21:56:45.949Z,68.95
2023-02-23T21:59:20.827Z,68.99
2023-02-23T22:01:55.229Z,69.37
2023-02-23T22:04:29.857Z,69.27
2023-02-23T22:07:05.552Z,69.64
2023-02-23T22:09:40.324Z,69.61
2023-02-23T22:12:14.910Z,69.28
2023-02-23T22:14:49.730Z,69.36
2023-02-23T22:17:24.460Z,69.71
2023-02-23T22:19:59.444Z,69.10
2023-02-23T22:22:36.263Z,68.81
2023-02-23T22:25:11.989Z,68.58
2023-02-23T22:27:46.216Z,69.44
2023-02-23T22:30:23.064Z,69.64
2023-02-23T22:32:57.736Z,69.03
2023-02-23T22:35:32.519Z,69.76
2023-02-23T22:38:08.176Z,69.81
2023-02-23T22:40:43.583Z,69.96
2023-02-23T22:43:18.555Z,70.09
2023-02-23T22:45:55.179Z,70.54
2023-02-23T22:48:30.074Z,70.13
2023-02-23T22:51:05.317Z,69.58
2023-02-23T22:53:40.972Z,69.78
2023-02-23T22:56:15.463Z,70.11
2023-02-23T22:58:53.302Z,70.27
2023-02-23T23:03:05.701Z,68.73
2023-02-23T23:05:40.963Z,68.73
2023-02-23T23:08:15.407Z,69.22
2023-02-23T23:10:50.647Z,70.09
2023-02-23T23:13:25.091Z,69.89
2023-02-23T23:16:07.772Z,69.81
2023-02-23T23:18:46.584Z,69.72
2023-02-23T23:21:23.588Z,69.69
2023-02-23T23:23:59.633Z,69.36
2023-02-23T23:26:36.306Z,70.27
2023-02-23T23:29:15.803Z,70.77
2023-02-23T23:31:51.785Z,70.54
2023-02-23T23:34:27.650Z,70.83
2023-02-23T23:37:02.945Z,71.05
2023-02-23T23:39:37.502Z,70.27
2023-02-23T23:42:13.047Z,70.72
2023-02-23T23:44:47.370Z,71.41
2023-02-23T23:47:21.934Z,70.90
2023-02-23T23:49:58.206Z,71.43
2023-02-23T23:52:35.395Z,71.50
2023-02-23T23:55:10.791Z,71.84
2023-02-23T23:57:45.332Z,71.88
